sensor_id;sensor_type;location;lat;lon;timestamp;pressure;altitude;pressure_sealevel;temperature;humidity
3444;BME280;1736;52.068;6.968;2023-09-30T00:00:00;102047.06;;;12.21;100.00
3444;BME280;1736;52.068;6.968;2023-09-30T00:02:29;102043.53;;;12.21;100.00
3444;BME280;1736;52.068;6.968;2023-09-30T00:04:56;102044.50;;;12.20;100.00
3444;BME280;1736;52.068;6.968;2023-09-30T00:07:22;102106.44;;;12.22;100.00
3444;BME280;1736;52.068;6.968;2023-09-30T00:09:50;102105.63;;;12.21;100.00
3444;BME280;1736;52.068;6.968;2023-09-30T00:12:17;102092.50;;;12.18;100.00
3444;BME280;1736;52.068;6.968;2023-09-30T00:14:44;102082.94;;;12.16;100.00
3444;BME280;1736;52.068;6.968;2023-09-30T00:17:10;102077.59;;;12.16;100.00
3444;BME280;1736;52.068;6.968;2023-09-30T00:19:38;102082.50;;;12.22;100.00
3444;BME280;1736;52.068;6.968;2023-09-30T00:22:05;102082.72;;;12.19;100.00
3444;BME280;1736;52.068;6.968;2023-09-30T00:24:31;102068.66;;;12.17;100.00
3444;BME280;1736;52.068;6.968;2023-09-30T00:26:59;102072.38;;;12.14;100.00
3444;BME280;1736;52.068;6.968;2023-09-30T00:29:25;102069.91;;;12.11;100.00
3444;BME280;1736;52.068;6.968;2023-09-30T00:31:52;102062.03;;;12.10;100.00
3444;BME280;1736;52.068;6.968;2023-09-30T00:34:19;102170.59;;;12.05;100.00
3444;BME280;1736;52.068;6.968;2023-09-30T00:36:47;102114.31;;;12.11;100.00
3444;BME280;1736;52.068;6.968;2023-09-30T00:39:14;102108.03;;;12.12;100.00
3444;BME280;1736;52.068;6.968;2023-09-30T00:41:40;102094.94;;;12.09;100.00
3444;BME280;1736;52.068;6.968;2023-09-30T00:44:07;102078.00;;;12.10;100.00
3444;BME280;1736;52.068;6.968;2023-09-30T00:46:36;102075.16;;;12.13;100.00
3444;BME280;1736;52.068;6.968;2023-09-30T00:49:03;102064.41;;;12.14;100.00
3444;BME280;1736;52.068;6.968;2023-09-30T00:51:30;102073.34;;;12.13;100.00
3444;BME280;1736;52.068;6.968;2023-09-30T00:54:00;102076.84;;;12.14;100.00
3444;BME280;1736;52.068;6.968;2023-09-30T00:56:27;102076.53;;;12.18;100.00
3444;BME280;1736;52.068;6.968;2023-09-30T00:58:55;102068.75;;;12.15;100.00
3444;BME280;1736;52.068;6.968;2023-09-30T01:01:22;102071.31;;;12.17;100.00
3444;BME280;1736;52.068;6.968;2023-09-30T01:03:49;102055.34;;;12.17;100.00
3444;BME280;1736;52.068;6.968;2023-09-30T01:06:15;102056.13;;;12.19;100.00
3444;BME280;1736;52.068;6.968;2023-09-30T01:08:42;102047.25;;;12.18;100.00
3444;BME280;1736;52.068;6.968;2023-09-30T01:11:11;102059.72;;;12.18;100.00
3444;BME280;1736;52.068;6.968;2023-09-30T01:13:39;102071.13;;;12.20;100.00
3444;BME280;1736;52.068;6.968;2023-09-30T01:16:06;102057.03;;;12.18;100.00
3444;BME280;1736;52.068;6.968;2023-09-30T01:18:35;102047.06;;;12.21;100.00
3444;BME280;1736;52.068;6.968;2023-09-30T01:21:04;102049.94;;;12.18;100.00
3444;BME280;1736;52.068;6.968;2023-09-30T01:23:33;102065.59;;;12.23;100.00
3444;BME280;1736;52.068;6.968;2023-09-30T01:26:01;102055.25;;;12.18;100.00
3444;BME280;1736;52.068;6.968;2023-09-30T01:28:30;102059.72;;;12.18;100.00
3444;BME280;1736;52.068;6.968;2023-09-30T01:30:56;102057.38;;;12.26;100.00
3444;BME280;1736;52.068;6.968;2023-09-30T01:33:23;102068.25;;;12.23;100.00
3444;BME280;1736;52.068;6.968;2023-09-30T01:35:50;102068.88;;;12.26;100.00
3444;BME280;1736;52.068;6.968;2023-09-30T01:38:17;102080.81;;;12.21;100.00
3444;BME280;1736;52.068;6.968;2023-09-30T01:40:45;102075.69;;;12.18;100.00
3444;BME280;1736;52.068;6.968;2023-09-30T01:43:12;102071.53;;;12.14;100.00
3444;BME280;1736;52.068;6.968;2023-09-30T01:45:39;102095.69;;;12.11;100.00
3444;BME280;1736;52.068;6.968;2023-09-30T01:48:06;102099.28;;;12.10;100.00
3444;BME280;1736;52.068;6.968;2023-09-30T01:50:32;102094.19;;;12.07;100.00
3444;BME280;1736;52.068;6.968;2023-09-30T01:52:59;102087.28;;;12.04;100.00
3444;BME280;1736;52.068;6.968;2023-09-30T01:55:26;102091.22;;;11.99;100.00
3444;BME280;1736;52.068;6.968;2023-09-30T01:57:54;102086.19;;;11.94;100.00
3444;BME280;1736;52.068;6.968;2023-09-30T02:00:20;102090.09;;;11.89;100.00
3444;BME280;1736;52.068;6.968;2023-09-30T02:02:47;102084.16;;;11.85;100.00
3444;BME280;1736;52.068;6.968;2023-09-30T02:05:13;102083.09;;;11.88;100.00
3444;BME280;1736;52.068;6.968;2023-09-30T02:07:40;102068.28;;;11.84;100.00
3444;BME280;1736;52.068;6.968;2023-09-30T02:10:08;102061.38;;;11.81;100.00
3444;BME280;1736;52.068;6.968;2023-09-30T02:12:35;102054.03;;;11.85;100.00
3444;BME280;1736;52.068;6.968;2023-09-30T02:15:05;102066.69;;;11.81;100.00
3444;BME280;1736;52.068;6.968;2023-09-30T02:17:32;102065.09;;;11.79;100.00
3444;BME280;1736;52.068;6.968;2023-09-30T02:19:59;102057.31;;;11.76;100.00
3444;BME280;1736;52.068;6.968;2023-09-30T02:22:26;102065.38;;;11.74;100.00
3444;BME280;1736;52.068;6.968;2023-09-30T02:24:53;102052.28;;;11.71;100.00
3444;BME280;1736;52.068;6.968;2023-09-30T02:27:20;102049.75;;;11.70;100.00
3444;BME280;1736;52.068;6.968;2023-09-30T02:29:46;102056.66;;;11.72;100.00
3444;BME280;1736;52.068;6.968;2023-09-30T02:32:16;102050.69;;;11.69;100.00
3444;BME280;1736;52.068;6.968;2023-09-30T02:34:43;102055.28;;;11.67;100.00
3444;BME280;1736;52.068;6.968;2023-09-30T02:37:10;102064.50;;;11.61;100.00
3444;BME280;1736;52.068;6.968;2023-09-30T02:39:36;102079.97;;;11.55;100.00
3444;BME280;1736;52.068;6.968;2023-09-30T02:42:03;102098.19;;;11.61;100.00
3444;BME280;1736;52.068;6.968;2023-09-30T02:44:30;102108.06;;;11.59;100.00
3444;BME280;1736;52.068;6.968;2023-09-30T02:46:57;102110.66;;;11.60;100.00
3444;BME280;1736;52.068;6.968;2023-09-30T02:49:25;102127.44;;;11.61;100.00
3444;BME280;1736;52.068;6.968;2023-09-30T02:51:51;102140.06;;;11.57;100.00
3444;BME280;1736;52.068;6.968;2023-09-30T02:54:18;102134.84;;;11.56;100.00
3444;BME280;1736;52.068;6.968;2023-09-30T02:56:45;102141.97;;;11.55;100.00
3444;BME280;1736;52.068;6.968;2023-09-30T02:59:12;102143.69;;;11.56;100.00
3444;BME280;1736;52.068;6.968;2023-09-30T03:01:39;102147.19;;;11.57;100.00
3444;BME280;1736;52.068;6.968;2023-09-30T03:04:06;102136.75;;;11.54;100.00
3444;BME280;1736;52.068;6.968;2023-09-30T03:06:34;102141.41;;;11.50;100.00
3444;BME280;1736;52.068;6.968;2023-09-30T03:09:03;102162.31;;;11.56;100.00
3444;BME280;1736;52.068;6.968;2023-09-30T03:11:30;102156.53;;;11.50;100.00
3444;BME280;1736;52.068;6.968;2023-09-30T03:13:57;102151.22;;;11.50;100.00
3444;BME280;1736;52.068;6.968;2023-09-30T03:16:24;102159.28;;;11.48;100.00
3444;BME280;1736;52.068;6.968;2023-09-30T03:18:50;102169.06;;;11.48;100.00
3444;BME280;1736;52.068;6.968;2023-09-30T03:21:21;102179.13;;;11.43;100.00
3444;BME280;1736;52.068;6.968;2023-09-30T03:23:49;102189.75;;;11.43;100.00
3444;BME280;1736;52.068;6.968;2023-09-30T03:26:15;102199.44;;;11.44;100.00
3444;BME280;1736;52.068;6.968;2023-09-30T03:28:42;102197.91;;;11.40;100.00
3444;BME280;1736;52.068;6.968;2023-09-30T03:31:08;102210.25;;;11.41;100.00
3444;BME280;1736;52.068;6.968;2023-09-30T03:33:36;102206.84;;;11.39;100.00
3444;BME280;1736;52.068;6.968;2023-09-30T03:36:03;102215.78;;;11.38;100.00
3444;BME280;1736;52.068;6.968;2023-09-30T03:38:30;102219.59;;;11.34;100.00
3444;BME280;1736;52.068;6.968;2023-09-30T03:40:59;102223.38;;;11.30;100.00
3444;BME280;1736;52.068;6.968;2023-09-30T03:43:26;102231.66;;;11.39;100.00
3444;BME280;1736;52.068;6.968;2023-09-30T03:45:52;102227.75;;;11.31;100.00
3444;BME280;1736;52.068;6.968;2023-09-30T03:48:20;102227.19;;;11.26;100.00
3444;BME280;1736;52.068;6.968;2023-09-30T03:50:47;102229.94;;;11.24;100.00
3444;BME280;1736;52.068;6.968;2023-09-30T03:53:14;102217.00;;;11.18;100.00
3444;BME280;1736;52.068;6.968;2023-09-30T03:55:41;102226.03;;;11.16;100.00
3444;BME280;1736;52.068;6.968;2023-09-30T03:58:09;102228.69;;;11.16;100.00
3444;BME280;1736;52.068;6.968;2023-09-30T04:00:35;102231.34;;;11.16;100.00
3444;BME280;1736;52.068;6.968;2023-09-30T04:03:03;102234.09;;;11.14;100.00
3444;BME280;1736;52.068;6.968;2023-09-30T04:05:29;102238.00;;;11.09;100.00
3444;BME280;1736;52.068;6.968;2023-09-30T04:07:59;102239.72;;;11.10;100.00
3444;BME280;1736;52.068;6.968;2023-09-30T04:10:25;102244.53;;;11.03;100.00
3444;BME280;1736;52.068;6.968;2023-09-30T04:12:52;102261.13;;;11.07;100.00
3444;BME280;1736;52.068;6.968;2023-09-30T04:15:20;102262.44;;;11.00;100.00
3444;BME280;1736;52.068;6.968;2023-09-30T04:17:48;102260.66;;;11.00;100.00
3444;BME280;1736;52.068;6.968;2023-09-30T04:20:14;102267.97;;;10.97;100.00
3444;BME280;1736;52.068;6.968;2023-09-30T04:22:45;102287.50;;;10.96;100.00
3444;BME280;1736;52.068;6.968;2023-09-30T04:25:14;102274.19;;;10.96;100.00
3444;BME280;1736;52.068;6.968;2023-09-30T04:27:41;102272.34;;;10.98;100.00
3444;BME280;1736;52.068;6.968;2023-09-30T04:30:11;102280.97;;;11.01;100.00
3444;BME280;1736;52.068;6.968;2023-09-30T04:32:41;102289.09;;;10.98;100.00
3444;BME280;1736;52.068;6.968;2023-09-30T04:35:08;102291.75;;;10.98;100.00
3444;BME280;1736;52.068;6.968;2023-09-30T04:37:35;102298.91;;;10.98;100.00
3444;BME280;1736;52.068;6.968;2023-09-30T04:40:03;102312.19;;;10.98;100.00
3444;BME280;1736;52.068;6.968;2023-09-30T04:42:32;102305.91;;;10.99;100.00
3444;BME280;1736;52.068;6.968;2023-09-30T04:44:59;102320.72;;;11.03;100.00
3444;BME280;1736;52.068;6.968;2023-09-30T04:47:26;102319.19;;;10.99;100.00
3444;BME280;1736;52.068;6.968;2023-09-30T04:49:54;102323.84;;;10.95;100.00
3444;BME280;1736;52.068;6.968;2023-09-30T04:52:23;102328.28;;;10.95;100.00
3444;BME280;1736;52.068;6.968;2023-09-30T04:54:52;102322.81;;;10.98;100.00
3444;BME280;1736;52.068;6.968;2023-09-30T04:57:19;102323.63;;;10.98;100.00
3444;BME280;1736;52.068;6.968;2023-09-30T04:59:47;102340.19;;;11.03;100.00
3444;BME280;1736;52.068;6.968;2023-09-30T05:02:13;102400.81;;;11.11;100.00
3444;BME280;1736;52.068;6.968;2023-09-30T05:04:40;102396.63;;;11.07;100.00
3444;BME280;1736;52.068;6.968;2023-09-30T05:07:09;102398.41;;;11.06;100.00
3444;BME280;1736;52.068;6.968;2023-09-30T05:09:35;102403.00;;;11.04;100.00
3444;BME280;1736;52.068;6.968;2023-09-30T05:12:04;102409.34;;;11.02;100.00
3444;BME280;1736;52.068;6.968;2023-09-30T05:14:31;102400.41;;;11.03;100.00
3444;BME280;1736;52.068;6.968;2023-09-30T05:16:58;102405.66;;;11.04;100.00
3444;BME280;1736;52.068;6.968;2023-09-30T05:19:25;102413.63;;;11.04;100.00
3444;BME280;1736;52.068;6.968;2023-09-30T05:21:51;102424.50;;;11.00;100.00
3444;BME280;1736;52.068;6.968;2023-09-30T05:24:19;102443.28;;;10.97;100.00
3444;BME280;1736;52.068;6.968;2023-09-30T05:26:46;102433.41;;;10.99;100.00
3444;BME280;1736;52.068;6.968;2023-09-30T05:29:13;102428.88;;;11.01;100.00
3444;BME280;1736;52.068;6.968;2023-09-30T05:31:42;102448.50;;;10.98;100.00
3444;BME280;1736;52.068;6.968;2023-09-30T05:34:08;102450.31;;;10.98;100.00
3444;BME280;1736;52.068;6.968;2023-09-30T05:36:35;102449.44;;;10.97;100.00
3444;BME280;1736;52.068;6.968;2023-09-30T05:39:02;102454.00;;;10.95;100.00
3444;BME280;1736;52.068;6.968;2023-09-30T05:41:31;102463.31;;;11.02;100.00
3444;BME280;1736;52.068;6.968;2023-09-30T05:43:58;102469.66;;;11.00;100.00
3444;BME280;1736;52.068;6.968;2023-09-30T05:46:25;102459.22;;;10.97;100.00
3444;BME280;1736;52.068;6.968;2023-09-30T05:48:52;102464.34;;;11.00;100.00
3444;BME280;1736;52.068;6.968;2023-09-30T05:51:19;102458.88;;;11.03;100.00
3444;BME280;1736;52.068;6.968;2023-09-30T05:53:46;102470.00;;;11.09;100.00
3444;BME280;1736;52.068;6.968;2023-09-30T05:56:13;102461.59;;;11.17;100.00
3444;BME280;1736;52.068;6.968;2023-09-30T05:58:42;102473.22;;;11.30;100.00
3444;BME280;1736;52.068;6.968;2023-09-30T06:01:08;102479.78;;;11.38;100.00
3444;BME280;1736;52.068;6.968;2023-09-30T06:03:38;102485.25;;;11.51;100.00
3444;BME280;1736;52.068;6.968;2023-09-30T06:06:10;102491.66;;;11.62;100.00
3444;BME280;1736;52.068;6.968;2023-09-30T06:08:37;102480.19;;;11.76;100.00
3444;BME280;1736;52.068;6.968;2023-09-30T06:11:04;102484.22;;;11.83;100.00
3444;BME280;1736;52.068;6.968;2023-09-30T06:13:32;102481.16;;;11.89;100.00
3444;BME280;1736;52.068;6.968;2023-09-30T06:16:00;102499.22;;;11.98;100.00
3444;BME280;1736;52.068;6.968;2023-09-30T06:18:27;102498.19;;;12.00;100.00
3444;BME280;1736;52.068;6.968;2023-09-30T06:20:54;102496.28;;;12.02;100.00
3444;BME280;1736;52.068;6.968;2023-09-30T06:23:20;102501.44;;;12.05;100.00
3444;BME280;1736;52.068;6.968;2023-09-30T06:25:47;102500.38;;;12.08;100.00
3444;BME280;1736;52.068;6.968;2023-09-30T06:28:14;102514.06;;;12.16;100.00
3444;BME280;1736;52.068;6.968;2023-09-30T06:30:40;102513.50;;;12.25;100.00
3444;BME280;1736;52.068;6.968;2023-09-30T06:33:09;102514.44;;;12.38;100.00
3444;BME280;1736;52.068;6.968;2023-09-30T06:35:38;102528.91;;;12.48;100.00
3444;BME280;1736;52.068;6.968;2023-09-30T06:38:15;102528.97;;;12.60;100.00
3444;BME280;1736;52.068;6.968;2023-09-30T06:40:42;102521.25;;;12.70;100.00
3444;BME280;1736;52.068;6.968;2023-09-30T06:43:10;102531.81;;;12.71;100.00
3444;BME280;1736;52.068;6.968;2023-09-30T06:45:37;102521.94;;;12.73;100.00
3444;BME280;1736;52.068;6.968;2023-09-30T06:48:08;102512.81;;;12.77;100.00
3444;BME280;1736;52.068;6.968;2023-09-30T06:50:38;102516.03;;;12.82;100.00
3444;BME280;1736;52.068;6.968;2023-09-30T06:53:05;102517.53;;;12.86;100.00
3444;BME280;1736;52.068;6.968;2023-09-30T06:55:31;102518.97;;;12.92;100.00
3444;BME280;1736;52.068;6.968;2023-09-30T06:57:58;102523.91;;;12.98;100.00
3444;BME280;1736;52.068;6.968;2023-09-30T07:00:26;102510.50;;;12.99;100.00
3444;BME280;1736;52.068;6.968;2023-09-30T07:02:53;102515.53;;;13.04;100.00
3444;BME280;1736;52.068;6.968;2023-09-30T07:05:21;102517.59;;;13.13;100.00
3444;BME280;1736;52.068;6.968;2023-09-30T07:07:47;102515.47;;;13.18;100.00
3444;BME280;1736;52.068;6.968;2023-09-30T07:10:14;102508.22;;;13.20;100.00
3444;BME280;1736;52.068;6.968;2023-09-30T07:12:41;102503.09;;;13.17;100.00
3444;BME280;1736;52.068;6.968;2023-09-30T07:15:08;102498.69;;;13.16;100.00
3444;BME280;1736;52.068;6.968;2023-09-30T07:17:35;102504.03;;;13.16;100.00
3444;BME280;1736;52.068;6.968;2023-09-30T07:20:02;102501.53;;;13.27;100.00
3444;BME280;1736;52.068;6.968;2023-09-30T07:22:31;102512.34;;;13.38;100.00
3444;BME280;1736;52.068;6.968;2023-09-30T07:24:58;102504.88;;;13.43;100.00
3444;BME280;1736;52.068;6.968;2023-09-30T07:27:24;102515.50;;;13.57;100.00
3444;BME280;1736;52.068;6.968;2023-09-30T07:29:51;102525.84;;;13.61;100.00
3444;BME280;1736;52.068;6.968;2023-09-30T07:32:18;102519.13;;;13.68;100.00
3444;BME280;1736;52.068;6.968;2023-09-30T07:34:47;102515.19;;;13.74;100.00
3444;BME280;1736;52.068;6.968;2023-09-30T07:37:14;102513.41;;;13.87;100.00
3444;BME280;1736;52.068;6.968;2023-09-30T07:39:44;102519.19;;;14.06;100.00
3444;BME280;1736;52.068;6.968;2023-09-30T07:42:11;102529.03;;;14.18;100.00
3444;BME280;1736;52.068;6.968;2023-09-30T07:44:38;102532.03;;;14.26;100.00
3444;BME280;1736;52.068;6.968;2023-09-30T07:47:04;102530.53;;;14.34;100.00
3444;BME280;1736;52.068;6.968;2023-09-30T07:49:32;102531.81;;;14.41;100.00
3444;BME280;1736;52.068;6.968;2023-09-30T07:51:59;102530.63;;;14.45;100.00
3444;BME280;1736;52.068;6.968;2023-09-30T07:54:25;102534.03;;;14.60;100.00
3444;BME280;1736;52.068;6.968;2023-09-30T07:56:53;102544.34;;;14.77;100.00
3444;BME280;1736;52.068;6.968;2023-09-30T07:59:20;102538.13;;;14.76;100.00
3444;BME280;1736;52.068;6.968;2023-09-30T08:01:48;102554.28;;;14.87;100.00
3444;BME280;1736;52.068;6.968;2023-09-30T08:04:15;102610.59;;;14.97;100.00
3444;BME280;1736;52.068;6.968;2023-09-30T08:06:41;102607.16;;;15.07;100.00
3444;BME280;1736;52.068;6.968;2023-09-30T08:09:08;102604.91;;;15.14;100.00
3444;BME280;1736;52.068;6.968;2023-09-30T08:11:35;102610.31;;;15.25;100.00
3444;BME280;1736;52.068;6.968;2023-09-30T08:14:03;102606.31;;;15.43;100.00
3444;BME280;1736;52.068;6.968;2023-09-30T08:16:32;102609.28;;;15.51;100.00
3444;BME280;1736;52.068;6.968;2023-09-30T08:18:59;102617.09;;;15.54;100.00
3444;BME280;1736;52.068;6.968;2023-09-30T08:21:25;102635.69;;;15.68;100.00
3444;BME280;1736;52.068;6.968;2023-09-30T08:23:52;102629.91;;;15.62;100.00
3444;BME280;1736;52.068;6.968;2023-09-30T08:26:19;102624.53;;;15.62;100.00
3444;BME280;1736;52.068;6.968;2023-09-30T08:28:45;102624.22;;;15.66;100.00
3444;BME280;1736;52.068;6.968;2023-09-30T08:31:14;102628.66;;;15.78;100.00
3444;BME280;1736;52.068;6.968;2023-09-30T08:33:40;102617.06;;;15.67;100.00
3444;BME280;1736;52.068;6.968;2023-09-30T08:36:10;102625.59;;;15.72;100.00
3444;BME280;1736;52.068;6.968;2023-09-30T08:38:38;102621.94;;;15.73;100.00
3444;BME280;1736;52.068;6.968;2023-09-30T08:41:05;102635.09;;;15.76;100.00
3444;BME280;1736;52.068;6.968;2023-09-30T08:43:36;102686.78;;;15.76;100.00
3444;BME280;1736;52.068;6.968;2023-09-30T08:46:04;102662.31;;;15.93;100.00
3444;BME280;1736;52.068;6.968;2023-09-30T08:48:33;102641.34;;;15.87;100.00
3444;BME280;1736;52.068;6.968;2023-09-30T08:51:01;102641.31;;;16.11;100.00
3444;BME280;1736;52.068;6.968;2023-09-30T08:53:29;102630.03;;;16.18;100.00
3444;BME280;1736;52.068;6.968;2023-09-30T08:55:57;102621.16;;;16.29;100.00
3444;BME280;1736;52.068;6.968;2023-09-30T08:58:27;102622.97;;;16.28;100.00
3444;BME280;1736;52.068;6.968;2023-09-30T09:00:53;102619.34;;;16.40;100.00
3444;BME280;1736;52.068;6.968;2023-09-30T09:03:21;102618.16;;;16.44;100.00
3444;BME280;1736;52.068;6.968;2023-09-30T09:05:54;102606.72;;;16.42;100.00
3444;BME280;1736;52.068;6.968;2023-09-30T09:08:22;102601.00;;;16.58;100.00
3444;BME280;1736;52.068;6.968;2023-09-30T09:10:56;102601.13;;;16.56;100.00
3444;BME280;1736;52.068;6.968;2023-09-30T09:13:23;102593.97;;;16.57;100.00
3444;BME280;1736;52.068;6.968;2023-09-30T09:15:50;102596.25;;;16.72;100.00
3444;BME280;1736;52.068;6.968;2023-09-30T09:18:32;102604.06;;;16.75;100.00
3444;BME280;1736;52.068;6.968;2023-09-30T09:21:11;102594.81;;;16.79;100.00
3444;BME280;1736;52.068;6.968;2023-09-30T09:23:42;102600.91;;;16.92;100.00
3444;BME280;1736;52.068;6.968;2023-09-30T09:26:10;102604.78;;;16.88;100.00
3444;BME280;1736;52.068;6.968;2023-09-30T09:28:38;102600.03;;;16.92;100.00
3444;BME280;1736;52.068;6.968;2023-09-30T09:31:21;102604.06;;;16.97;100.00
3444;BME280;1736;52.068;6.968;2023-09-30T09:33:49;102600.78;;;17.05;100.00
3444;BME280;1736;52.068;6.968;2023-09-30T09:36:17;102597.69;;;17.09;100.00
3444;BME280;1736;52.068;6.968;2023-09-30T09:38:45;102586.72;;;17.12;100.00
3444;BME280;1736;52.068;6.968;2023-09-30T09:41:13;102596.72;;;17.21;100.00
3444;BME280;1736;52.068;6.968;2023-09-30T09:43:41;102598.50;;;17.32;100.00
3444;BME280;1736;52.068;6.968;2023-09-30T09:46:08;102605.47;;;17.45;100.00
3444;BME280;1736;52.068;6.968;2023-09-30T09:48:35;102597.03;;;17.39;100.00
3444;BME280;1736;52.068;6.968;2023-09-30T09:51:02;102605.59;;;17.44;100.00
3444;BME280;1736;52.068;6.968;2023-09-30T09:53:34;102605.47;;;17.45;100.00
3444;BME280;1736;52.068;6.968;2023-09-30T09:56:03;102618.19;;;17.43;100.00
3444;BME280;1736;52.068;6.968;2023-09-30T09:58:32;102627.63;;;17.58;100.00
3444;BME280;1736;52.068;6.968;2023-09-30T10:01:00;102625.41;;;17.63;100.00
3444;BME280;1736;52.068;6.968;2023-09-30T10:03:27;102625.78;;;17.70;100.00
3444;BME280;1736;52.068;6.968;2023-09-30T10:05:54;102607.31;;;17.76;100.00
3444;BME280;1736;52.068;6.968;2023-09-30T10:08:30;102617.28;;;17.85;100.00
3444;BME280;1736;52.068;6.968;2023-09-30T10:11:00;102621.50;;;17.99;100.00
3444;BME280;1736;52.068;6.968;2023-09-30T10:13:49;102614.28;;;17.99;100.00
3444;BME280;1736;52.068;6.968;2023-09-30T10:16:46;102612.09;;;18.04;100.00
3444;BME280;1736;52.068;6.968;2023-09-30T10:19:15;102618.56;;;18.22;100.00
3444;BME280;1736;52.068;6.968;2023-09-30T10:24:55;102612.25;;;18.44;100.00
3444;BME280;1736;52.068;6.968;2023-09-30T10:27:31;102620.88;;;18.47;100.00
3444;BME280;1736;52.068;6.968;2023-09-30T10:29:57;102613.75;;;18.67;100.00
3444;BME280;1736;52.068;6.968;2023-09-30T10:33:09;102606.63;;;18.56;100.00
3444;BME280;1736;52.068;6.968;2023-09-30T10:35:44;102623.94;;;18.63;100.00
3444;BME280;1736;52.068;6.968;2023-09-30T10:38:36;102630.56;;;18.59;100.00
3444;BME280;1736;52.068;6.968;2023-09-30T10:41:06;102629.69;;;18.49;100.00
3444;BME280;1736;52.068;6.968;2023-09-30T10:43:36;102634.44;;;18.46;100.00
3444;BME280;1736;52.068;6.968;2023-09-30T10:46:03;102630.13;;;18.54;100.00
3444;BME280;1736;52.068;6.968;2023-09-30T10:48:33;102619.06;;;18.48;100.00
3444;BME280;1736;52.068;6.968;2023-09-30T10:51:00;102607.97;;;18.41;100.00
3444;BME280;1736;52.068;6.968;2023-09-30T10:53:28;102611.06;;;18.37;100.00
3444;BME280;1736;52.068;6.968;2023-09-30T10:55:57;102607.66;;;18.35;100.00
3444;BME280;1736;52.068;6.968;2023-09-30T10:58:41;102594.69;;;18.29;100.00
3444;BME280;1736;52.068;6.968;2023-09-30T11:01:08;102595.44;;;18.31;100.00
3444;BME280;1736;52.068;6.968;2023-09-30T11:03:35;102587.63;;;18.28;100.00
3444;BME280;1736;52.068;6.968;2023-09-30T11:06:02;102584.06;;;18.27;100.00
3444;BME280;1736;52.068;6.968;2023-09-30T11:08:29;102590.59;;;18.45;100.00
3444;BME280;1736;52.068;6.968;2023-09-30T11:10:56;102574.78;;;18.52;100.00
3444;BME280;1736;52.068;6.968;2023-09-30T11:13:23;102581.28;;;18.79;100.00
3444;BME280;1736;52.068;6.968;2023-09-30T11:16:01;102567.91;;;18.98;100.00
3444;BME280;1736;52.068;6.968;2023-09-30T11:18:30;102617.47;;;19.05;100.00
3444;BME280;1736;52.068;6.968;2023-09-30T11:21:05;102587.72;;;19.07;100.00
3444;BME280;1736;52.068;6.968;2023-09-30T11:23:32;102594.75;;;19.28;100.00
3444;BME280;1736;52.068;6.968;2023-09-30T11:25:59;102581.72;;;19.33;100.00
3444;BME280;1736;52.068;6.968;2023-09-30T11:28:35;102588.44;;;19.48;100.00
3444;BME280;1736;52.068;6.968;2023-09-30T11:31:03;102588.84;;;19.53;100.00
3444;BME280;1736;52.068;6.968;2023-09-30T11:33:31;102578.78;;;19.36;100.00
3444;BME280;1736;52.068;6.968;2023-09-30T11:36:01;102578.88;;;19.25;100.00
3444;BME280;1736;52.068;6.968;2023-09-30T11:38:28;102572.22;;;19.20;100.00
3444;BME280;1736;52.068;6.968;2023-09-30T11:40:58;102561.53;;;19.09;100.00
3444;BME280;1736;52.068;6.968;2023-09-30T11:43:25;102562.19;;;18.82;100.00
3444;BME280;1736;52.068;6.968;2023-09-30T11:45:52;102565.34;;;18.57;100.00
3444;BME280;1736;52.068;6.968;2023-09-30T11:48:31;102662.44;;;18.43;100.00
3444;BME280;1736;52.068;6.968;2023-09-30T11:50:58;102167.69;;;18.35;100.00
3444;BME280;1736;52.068;6.968;2023-09-30T11:53:28;102533.75;;;18.29;100.00
3444;BME280;1736;52.068;6.968;2023-09-30T11:55:56;102246.00;;;18.21;100.00
3444;BME280;1736;52.068;6.968;2023-09-30T11:58:25;102340.59;;;18.15;100.00
3444;BME280;1736;52.068;6.968;2023-09-30T12:00:53;103656.66;;;18.15;100.00
3444;BME280;1736;52.068;6.968;2023-09-30T12:03:20;104287.16;;;18.20;100.00
3444;BME280;1736;52.068;6.968;2023-09-30T12:05:49;104947.38;;;18.27;100.00
3444;BME280;1736;52.068;6.968;2023-09-30T12:08:16;104477.22;;;18.35;100.00
3444;BME280;1736;52.068;6.968;2023-09-30T12:10:44;103641.81;;;18.59;100.00
3444;BME280;1736;52.068;6.968;2023-09-30T12:13:11;103229.84;;;18.76;100.00
3444;BME280;1736;52.068;6.968;2023-09-30T12:15:38;103848.06;;;18.85;100.00
3444;BME280;1736;52.068;6.968;2023-09-30T12:18:05;103273.78;;;18.88;90.80
3444;BME280;1736;52.068;6.968;2023-09-30T12:20:32;102523.56;;;19.02;93.51
3444;BME280;1736;52.068;6.968;2023-09-30T12:23:01;102601.75;;;19.01;94.98
3444;BME280;1736;52.068;6.968;2023-09-30T12:25:30;102867.81;;;18.94;95.26
3444;BME280;1736;52.068;6.968;2023-09-30T12:27:58;104231.72;;;19.03;96.83
3444;BME280;1736;52.068;6.968;2023-09-30T12:30:25;104696.47;;;19.21;94.00
3444;BME280;1736;52.068;6.968;2023-09-30T12:32:52;103081.06;;;19.29;93.72
3444;BME280;1736;52.068;6.968;2023-09-30T12:35:20;103666.16;;;19.31;98.25
3444;BME280;1736;52.068;6.968;2023-09-30T12:37:46;102786.94;;;19.37;93.59
3444;BME280;1736;52.068;6.968;2023-09-30T12:40:15;103020.31;;;19.47;93.34
3444;BME280;1736;52.068;6.968;2023-09-30T12:42:42;102921.59;;;19.88;90.95
3444;BME280;1736;52.068;6.968;2023-09-30T12:45:10;103079.84;;;19.85;87.04
3444;BME280;1736;52.068;6.968;2023-09-30T12:47:37;104079.47;;;20.02;87.09
3444;BME280;1736;52.068;6.968;2023-09-30T12:50:04;103181.50;;;19.94;88.79
3444;BME280;1736;52.068;6.968;2023-09-30T12:52:34;103794.97;;;19.97;91.44
3444;BME280;1736;52.068;6.968;2023-09-30T12:55:00;103110.91;;;20.01;88.00
3444;BME280;1736;52.068;6.968;2023-09-30T12:57:28;102988.09;;;20.08;89.66
3444;BME280;1736;52.068;6.968;2023-09-30T12:59:55;102930.69;;;19.96;89.37
3444;BME280;1736;52.068;6.968;2023-09-30T13:02:22;102879.31;;;19.88;88.52
3444;BME280;1736;52.068;6.968;2023-09-30T13:04:49;102833.38;;;19.89;88.85
3444;BME280;1736;52.068;6.968;2023-09-30T13:07:15;102804.03;;;19.96;89.73